| time (UTC) | temp F | wind direction | speed knots | gust knots | rain 1hr in | rain 24hr in | rain mn in | humidity % | barometer mb |
| 20260509212937 | 94 | 167 | 0.9 | 0.9 | 0.00 | 0.00 | 0.00 | 58 | |
| 20260509205932 | 93 | 150 | 1.7 | 2.6 | 0.00 | 0.00 | 0.00 | 61 | |
| 20260509202927 | 89 | 162 | 0.0 | 0.9 | 0.00 | 0.00 | 0.00 | 67 | |
| 20260509195925 | 90 | 93 | 0.9 | 0.9 | 0.00 | 0.00 | 0.00 | 67 | |
| 20260509192921 | 90 | 124 | 0.9 | 1.7 | 0.00 | 0.00 | 0.00 | 66 | |
| 20260509185917 | 91 | 92 | 0.9 | 2.6 | 0.00 | 0.00 | 0.00 | 67 | |
| 20260509182914 | 90 | 101 | 0.9 | 1.7 | 0.00 | 0.00 | 0.00 | 68 | |
| 20260509175912 | 89 | 180 | 2.6 | 4.3 | 0.00 | 0.00 | 0.00 | 71 | |
| 20260509172912 | 87 | 137 | 0.9 | 0.9 | 0.00 | 0.00 | 0.00 | 74 | |
| 20260509165906 | 87 | 211 | 0.9 | 0.9 | 0.00 | 0.00 | 0.00 | 77 | |
| 20260509162903 | 84 | 117 | 0.0 | 0.9 | 0.00 | 0.00 | 0.00 | 83 | |
| 20260509155858 | 83 | 124 | 0.0 | 1.7 | 0.00 | 0.00 | 0.00 | 85 | |
| 20260509152856 | 80 | 131 | 0.9 | 0.9 | 0.00 | 0.00 | 0.00 | 90 | |
| 20260509145850 | 79 | 184 | 0.0 | 0.9 | 0.00 | 0.00 | 0.00 | 93 | |
| 20260509142845 | 77 | 137 | 0.0 | 0.0 | 0.00 | 0.00 | 0.00 | 97 | |
| 20260509135843 | 76 | 120 | 0.0 | 0.0 | 0.00 | 0.00 | 0.00 | 99 | |
| 20260509132839 | 75 | 133 | 0.0 | 0.0 | 0.00 | 0.00 | 0.00 | 99 | |
| 20260509125836 | 75 | 104 | 0.0 | 0.9 | 0.00 | 0.00 | 0.00 | 99 | |
| 20260509122834 | 74 | 137 | 0.0 | 0.0 | 0.00 | 0.00 | 0.00 | 99 | |
| 20260509115831 | 74 | 139 | 0.0 | 0.0 | 0.00 | 0.00 | 0.00 | 99 | |
| 20260509112828 | 73 | 141 | 0.0 | 0.0 | 0.00 | 0.00 | 0.00 | 99 | |
| 20260509105828 | 73 | 131 | 0.0 | 0.0 | 0.00 | 0.00 | 0.00 | 99 | |
| 20260509102825 | 73 | 60 | 0.0 | 2.6 | 0.00 | 0.00 | 0.00 | 99 | |
| 20260509095823 | 73 | 103 | 0.9 | 0.9 | 0.00 | 0.00 | 0.00 | 99 | |
| 20260509092819 | 73 | 110 | 0.0 | 0.9 | 0.00 | 0.00 | 0.00 | 99 | |
| 20260509085814 | 73 | 116 | 0.0 | 0.0 | 0.00 | 0.00 | 0.00 | 99 | |
| 20260509082814 | 73 | 115 | 0.0 | 0.0 | 0.00 | 0.00 | 0.00 | 99 | |
| 20260509075810 | 73 | 118 | 0.0 | 0.0 | 0.00 | 0.00 | 0.00 | 99 | |
| 20260509072808 | 73 | 120 | 0.0 | 0.9 | 0.00 | 0.00 | 0.00 | 99 | |
| 20260509065805 | 73 | 166 | 1.7 | 2.6 | 0.00 | 0.00 | 0.00 | 99 | |
| 20260509062803 | 73 | 108 | 0.0 | 0.9 | 0.00 | 0.00 | 0.00 | 99 | |
| 20260509055802 | 72 | 118 | 0.0 | 2.6 | 0.00 | 0.00 | 0.00 | 99 | |
| 20260509052802 | 72 | 121 | 0.0 | 0.9 | 0.00 | 0.00 | 0.00 | 99 | |
| 20260509045757 | 72 | 126 | 0.9 | 0.9 | 0.00 | 0.00 | 0.00 | 99 | |
| 20260509042754 | 72 | 122 | 0.0 | 1.7 | 0.00 | 0.00 | 0.00 | 99 | |
| 20260509035754 | 72 | 126 | 0.9 | 1.7 | 0.00 | 0.00 | 0.00 | 99 | |
| 20260509032753 | 72 | 113 | 0.0 | 1.7 | 0.00 | 0.00 | 0.00 | 99 | |
| 20260509025749 | 72 | 135 | 0.9 | 2.6 | 0.00 | 0.00 | 0.00 | 99 | |
| 20260509022744 | 72 | 113 | 0.9 | 2.6 | 0.00 | 0.00 | 0.00 | 99 | |
| 20260509015741 | 73 | 121 | 0.9 | 0.9 | 0.00 | 0.00 | 0.00 | 98 | |
| 20260509012739 | 74 | 163 | 0.9 | 2.6 | 0.00 | 0.00 | 0.00 | 96 | |
| 20260509005734 | 75 | 128 | 0.0 | 1.7 | 0.00 | 0.00 | 0.00 | 94 | |
| 20260509002733 | 75 | 151 | 0.0 | 2.6 | 0.00 | 0.00 | 0.00 | 92 | |
| 20260508235733 | 76 | 128 | 0.9 | 1.7 | 0.00 | 0.00 | 0.00 | 91 | |
| 20260508232729 | 77 | 80 | 1.7 | 2.6 | 0.00 | 0.00 | 0.00 | 89 | |
| 20260508225729 | 78 | 144 | 0.0 | 2.6 | 0.00 | 0.00 | 0.00 | 87 | |
| 20260508222724 | 79 | 92 | 0.0 | 2.6 | 0.00 | 0.00 | 0.00 | 85 | |
| 20260508215719 | 78 | 140 | 1.7 | 1.7 | 0.00 | 0.00 | 0.00 | 86 |